createdAt,value
2022-10-26T00:01:10.444Z,11.00
2022-10-26T00:03:38.325Z,11.35
2022-10-26T00:06:09.713Z,10.05
2022-10-26T00:08:37.065Z,10.68
2022-10-26T00:11:04.784Z,10.63
2022-10-26T00:13:32.012Z,9.65
2022-10-26T00:18:27.721Z,9.57
2022-10-26T00:20:54.878Z,9.85
2022-10-26T00:23:22.002Z,9.70
2022-10-26T00:25:55.900Z,9.77
2022-10-26T00:28:23.048Z,9.55
2022-10-26T00:30:50.654Z,9.55
2022-10-26T00:33:18.008Z,11.32
2022-10-26T00:35:47.987Z,11.27
2022-10-26T00:38:15.207Z,12.57
2022-10-26T00:40:42.417Z,12.15
2022-10-26T00:43:16.533Z,12.65
2022-10-26T00:45:45.032Z,12.52
2022-10-26T00:48:16.380Z,13.57
2022-10-26T00:50:45.167Z,13.93
2022-10-26T00:53:12.826Z,13.48
2022-10-26T00:55:42.654Z,15.80
2022-10-26T00:58:10.960Z,15.55
2022-10-26T01:00:38.250Z,16.65
2022-10-26T01:03:07.037Z,16.30
2022-10-26T01:05:35.648Z,16.23
2022-10-26T01:08:03.059Z,18.17
2022-10-26T01:10:30.520Z,18.15
2022-10-26T01:12:59.134Z,18.33
2022-10-26T01:15:32.052Z,18.52
2022-10-26T01:18:06.297Z,17.75
2022-10-26T01:20:51.592Z,18.60
2022-10-26T01:23:34.723Z,16.80
2022-10-26T01:26:20.283Z,16.33
2022-10-26T01:29:06.291Z,15.20
2022-10-26T01:31:42.880Z,13.93
2022-10-26T01:34:13.510Z,13.48
2022-10-26T01:36:43.337Z,13.70
2022-10-26T01:39:37.054Z,13.57
2022-10-26T01:42:06.231Z,13.55
2022-10-26T01:44:42.913Z,13.77
2022-10-26T01:47:11.411Z,13.77
2022-10-26T01:49:40.995Z,13.68
2022-10-26T01:52:09.902Z,12.75
2022-10-26T01:57:12.100Z,13.43
2022-10-26T01:59:57.053Z,12.95
2022-10-26T02:02:28.909Z,12.05
2022-10-26T02:05:03.976Z,12.20
2022-10-26T02:07:42.011Z,11.23
2022-10-26T02:10:27.962Z,12.05
2022-10-26T02:12:58.128Z,10.98
2022-10-26T02:15:35.013Z,11.52
2022-10-26T02:18:08.610Z,10.48
2022-10-26T02:20:37.200Z,11.52
2022-10-26T02:23:07.215Z,11.32
2022-10-26T02:25:36.681Z,11.60
2022-10-26T02:28:06.745Z,11.85
2022-10-26T02:30:35.159Z,12.55
2022-10-26T02:33:03.630Z,12.15
2022-10-26T02:35:31.740Z,11.48
2022-10-26T02:38:00.909Z,11.98
2022-10-26T02:40:29.472Z,11.02
2022-10-26T02:42:59.487Z,11.35
2022-10-26T02:45:28.565Z,10.90
2022-10-26T02:47:56.499Z,10.63
2022-10-26T02:50:25.773Z,11.07
2022-10-26T02:53:01.207Z,11.68
2022-10-26T02:55:30.282Z,12.10
2022-10-26T02:58:00.449Z,11.38
2022-10-26T03:00:27.697Z,12.27
2022-10-26T03:02:57.413Z,12.35
2022-10-26T03:05:26.374Z,12.15
2022-10-26T03:07:53.573Z,11.63
2022-10-26T03:10:20.887Z,12.60
2022-10-26T03:12:48.492Z,11.85
2022-10-26T03:15:16.040Z,11.80
2022-10-26T03:17:43.183Z,12.57
2022-10-26T03:20:11.010Z,11.50
2022-10-26T03:22:38.218Z,10.35
2022-10-26T03:25:05.606Z,10.38
2022-10-26T03:27:32.782Z,11.35
2022-10-26T03:30:00.041Z,11.52
2022-10-26T03:32:27.200Z,10.88
2022-10-26T03:34:54.316Z,10.90
2022-10-26T03:37:21.492Z,11.80
2022-10-26T03:39:48.597Z,10.75
2022-10-26T03:42:15.706Z,10.95
2022-10-26T03:44:42.994Z,10.88
2022-10-26T03:47:10.145Z,10.50
2022-10-26T03:49:37.261Z,10.85
2022-10-26T03:52:04.810Z,11.80
2022-10-26T03:54:31.930Z,10.55
2022-10-26T03:56:59.052Z,11.80
2022-10-26T03:59:26.314Z,11.18
2022-10-26T04:01:56.756Z,11.05
2022-10-26T04:04:25.265Z,10.52
2022-10-26T04:06:52.585Z,10.93
2022-10-26T04:09:19.729Z,11.18
2022-10-26T04:11:46.899Z,10.80
2022-10-26T04:14:14.065Z,11.52
2022-10-26T04:16:41.189Z,10.63
2022-10-26T04:19:08.318Z,12.07
2022-10-26T04:21:35.564Z,10.85
2022-10-26T04:24:02.838Z,11.75
2022-10-26T04:26:30.001Z,12.52
2022-10-26T04:28:57.321Z,11.70
2022-10-26T04:31:24.457Z,12.55
2022-10-26T04:33:51.614Z,11.98
2022-10-26T04:36:18.830Z,11.38
2022-10-26T04:38:45.961Z,11.43
2022-10-26T04:41:13.068Z,11.60
2022-10-26T04:43:40.344Z,12.07
2022-10-26T04:46:07.562Z,10.98
2022-10-26T04:48:34.666Z,10.98
2022-10-26T04:51:02.264Z,10.38
2022-10-26T04:53:29.438Z,10.15
2022-10-26T04:56:02.771Z,10.07
2022-10-26T04:58:29.906Z,10.57
2022-10-26T05:00:57.284Z,10.05
2022-10-26T05:03:24.585Z,9.52
2022-10-26T05:05:51.689Z,10.80
2022-10-26T05:08:18.857Z,10.48
2022-10-26T05:10:50.138Z,10.35
2022-10-26T05:15:44.387Z,9.95
2022-10-26T05:18:11.698Z,9.90
2022-10-26T05:20:38.874Z,10.52
2022-10-26T05:23:07.097Z,10.70
2022-10-26T05:25:36.563Z,9.82
2022-10-26T05:28:05.156Z,10.00
2022-10-26T05:30:32.706Z,10.15
2022-10-26T05:33:01.056Z,10.18
2022-10-26T05:35:28.351Z,9.75
2022-10-26T05:37:55.477Z,9.10
2022-10-26T05:40:22.857Z,9.82
2022-10-26T05:42:51.288Z,9.82
2022-10-26T05:45:18.756Z,9.50
2022-10-26T05:47:46.830Z,10.18
2022-10-26T05:50:14.697Z,10.48
2022-10-26T05:52:46.087Z,10.13
2022-10-26T05:55:15.421Z,10.27
2022-10-26T05:57:42.678Z,10.35
2022-10-26T06:00:11.172Z,9.25
2022-10-26T06:02:50.730Z,9.63
2022-10-26T06:05:21.937Z,9.98
2022-10-26T06:10:16.631Z,10.15
2022-10-26T06:12:43.874Z,8.15
2022-10-26T06:15:14.285Z,9.40
2022-10-26T06:17:49.205Z,8.82
2022-10-26T06:20:29.033Z,9.43
2022-10-26T06:22:59.230Z,8.18
2022-10-26T06:25:26.350Z,8.95
2022-10-26T06:28:03.990Z,8.68
2022-10-26T06:30:31.167Z,8.25
2022-10-26T06:33:05.828Z,8.07
2022-10-26T06:35:41.530Z,8.32
2022-10-26T06:38:11.387Z,8.07
2022-10-26T06:40:40.655Z,8.02
2022-10-26T06:43:13.984Z,7.72
2022-10-26T06:45:44.558Z,7.75
2022-10-26T06:48:16.225Z,7.65
2022-10-26T06:51:01.339Z,7.68
2022-10-26T06:53:41.828Z,7.65
2022-10-26T06:56:12.004Z,6.95
2022-10-26T06:58:40.415Z,6.63
2022-10-26T07:01:07.800Z,7.57
2022-10-26T07:03:34.969Z,6.85
2022-10-26T07:06:02.089Z,6.75
2022-10-26T07:08:30.724Z,6.47
2022-10-26T07:10:57.870Z,6.13
2022-10-26T07:13:24.978Z,5.60
2022-10-26T07:15:52.227Z,5.88
2022-10-26T07:18:19.345Z,5.22
2022-10-26T07:20:46.512Z,5.82
2022-10-26T07:23:13.800Z,4.90
2022-10-26T07:25:40.996Z,5.78
2022-10-26T07:28:10.181Z,5.75
2022-10-26T07:30:38.056Z,5.78
2022-10-26T07:33:06.616Z,5.82
2022-10-26T07:35:34.159Z,5.35
2022-10-26T07:38:01.607Z,6.28
2022-10-26T07:40:29.134Z,6.03
2022-10-26T07:43:00.458Z,5.45
2022-10-26T07:45:28.767Z,5.90
2022-10-26T07:47:56.234Z,6.20
2022-10-26T07:50:23.831Z,5.30
2022-10-26T07:52:51.520Z,6.07
2022-10-26T07:55:19.339Z,6.28
2022-10-26T07:57:48.595Z,5.55
2022-10-26T08:00:21.086Z,5.63
2022-10-26T08:02:48.211Z,5.30
2022-10-26T08:05:15.384Z,5.82
2022-10-26T08:07:43.855Z,5.35
2022-10-26T08:10:11.675Z,6.32
2022-10-26T08:12:38.838Z,6.53
2022-10-26T08:15:06.749Z,5.88
2022-10-26T08:17:34.021Z,5.90
2022-10-26T08:20:01.228Z,5.50
2022-10-26T08:22:31.291Z,5.35
2022-10-26T08:24:58.417Z,5.32
2022-10-26T08:27:25.871Z,6.40
2022-10-26T08:29:53.065Z,5.07
2022-10-26T08:32:20.227Z,5.97
2022-10-26T08:34:47.370Z,4.82
2022-10-26T08:37:14.551Z,4.75
2022-10-26T08:39:41.730Z,5.05
2022-10-26T08:42:17.509Z,4.95
2022-10-26T08:44:49.970Z,4.68
2022-10-26T08:47:24.888Z,4.95
2022-10-26T08:49:54.961Z,5.10
2022-10-26T08:52:25.090Z,5.68
2022-10-26T08:54:56.703Z,5.20
2022-10-26T08:57:23.802Z,5.22
2022-10-26T08:59:56.886Z,5.13
2022-10-26T09:02:24.833Z,4.43
2022-10-26T09:04:52.720Z,4.65
2022-10-26T09:07:19.899Z,4.60
2022-10-26T09:10:05.952Z,4.72
2022-10-26T09:12:39.521Z,4.47
2022-10-26T09:15:13.071Z,4.57
2022-10-26T09:17:40.263Z,4.15
2022-10-26T09:20:07.368Z,4.82
2022-10-26T09:22:41.935Z,4.13
2022-10-26T09:25:19.347Z,4.57
2022-10-26T09:27:55.696Z,4.22
2022-10-26T09:30:23.529Z,4.35
2022-10-26T09:32:53.175Z,3.88
2022-10-26T09:35:25.815Z,4.38
2022-10-26T09:37:57.863Z,4.57
2022-10-26T09:40:31.322Z,4.88
2022-10-26T09:43:05.370Z,4.70
2022-10-26T09:45:39.987Z,4.50
2022-10-26T09:48:12.012Z,4.38
2022-10-26T09:50:40.748Z,4.30
2022-10-26T09:53:08.023Z,4.50
2022-10-26T09:55:40.497Z,3.63
2022-10-26T09:58:13.259Z,4.97
2022-10-26T10:00:41.522Z,4.10
2022-10-26T10:03:22.056Z,4.90
2022-10-26T10:05:52.192Z,4.50
2022-10-26T10:08:20.026Z,4.30
2022-10-26T10:10:57.623Z,4.70
2022-10-26T10:13:26.184Z,4.90
2022-10-26T10:15:58.409Z,5.38
2022-10-26T10:18:25.604Z,5.65
2022-10-26T10:20:56.766Z,5.63
2022-10-26T10:25:58.613Z,6.03
2022-10-26T10:28:26.773Z,6.20
2022-10-26T10:31:01.333Z,6.07
2022-10-26T10:33:46.857Z,6.60
2022-10-26T10:36:19.567Z,6.60
2022-10-26T10:38:48.129Z,5.78
2022-10-26T10:41:18.053Z,5.35
2022-10-26T10:43:46.880Z,5.63
2022-10-26T10:46:18.836Z,6.85
2022-10-26T10:48:50.363Z,5.40
2022-10-26T10:51:20.659Z,5.75
2022-10-26T10:53:52.151Z,5.30
2022-10-26T10:56:38.196Z,5.97
2022-10-26T10:59:08.392Z,5.00
2022-10-26T11:01:40.867Z,5.55
2022-10-26T11:04:34.681Z,4.55
2022-10-26T11:07:02.967Z,5.65
2022-10-26T11:09:32.138Z,5.38
2022-10-26T11:12:02.387Z,5.28
2022-10-26T11:14:32.077Z,5.33
2022-10-26T11:17:02.237Z,5.50
2022-10-26T11:19:52.485Z,5.75
2022-10-26T11:22:28.647Z,6.00
2022-10-26T11:24:58.682Z,6.15
2022-10-26T11:27:32.659Z,5.57
2022-10-26T11:30:08.114Z,6.13
2022-10-26T11:32:35.352Z,5.93
2022-10-26T11:35:10.145Z,5.43
2022-10-26T11:37:54.030Z,5.82
2022-10-26T11:40:27.197Z,5.05
2022-10-26T11:43:17.669Z,6.30
2022-10-26T11:45:50.939Z,6.17
2022-10-26T11:48:18.133Z,6.65
2022-10-26T11:50:48.236Z,6.75
2022-10-26T11:53:20.183Z,6.00
2022-10-26T11:55:54.491Z,6.32
2022-10-26T11:58:26.260Z,6.07
2022-10-26T12:00:56.058Z,5.80
2022-10-26T12:03:27.925Z,5.93
2022-10-26T12:05:55.262Z,6.95
2022-10-26T12:08:25.077Z,6.20
2022-10-26T12:10:56.653Z,5.43
2022-10-26T12:13:23.848Z,5.13
2022-10-26T12:16:06.305Z,6.35
2022-10-26T12:18:53.899Z,5.45
2022-10-26T12:21:20.699Z,5.43
2022-10-26T12:24:01.026Z,6.28
2022-10-26T12:26:28.815Z,6.07
2022-10-26T12:29:04.846Z,5.40
2022-10-26T12:31:32.024Z,5.57
2022-10-26T12:34:00.220Z,5.18
2022-10-26T12:36:46.011Z,6.15
2022-10-26T12:39:31.867Z,5.97
2022-10-26T12:42:05.248Z,5.97
2022-10-26T12:44:58.264Z,5.57
2022-10-26T12:47:28.288Z,5.75
2022-10-26T12:50:07.439Z,5.50
2022-10-26T12:52:40.786Z,5.43
2022-10-26T12:55:13.999Z,5.88
2022-10-26T12:57:59.777Z,6.07
2022-10-26T13:00:27.666Z,5.65
2022-10-26T13:03:13.373Z,5.47
2022-10-26T13:05:46.674Z,5.65
2022-10-26T13:08:14.812Z,6.03
2022-10-26T13:10:48.090Z,4.93
2022-10-26T13:13:21.192Z,5.75
2022-10-26T13:15:55.755Z,4.80
2022-10-26T13:18:23.482Z,5.65
2022-10-26T13:20:54.891Z,5.50
2022-10-26T13:23:26.846Z,5.55
2022-10-26T13:26:13.950Z,5.93
2022-10-26T13:28:41.116Z,5.78
2022-10-26T13:31:37.356Z,6.75
2022-10-26T13:34:06.417Z,6.18
2022-10-26T13:36:52.092Z,6.75
2022-10-26T13:39:30.721Z,7.05
2022-10-26T13:41:59.650Z,8.93
2022-10-26T13:44:45.712Z,6.47
2022-10-26T13:47:39.210Z,6.57
2022-10-26T13:50:07.880Z,6.30
2022-10-26T13:52:37.169Z,6.40
2022-10-26T13:55:14.769Z,6.00
2022-10-26T13:57:45.868Z,5.90
2022-10-26T14:00:18.582Z,5.93
2022-10-26T14:02:45.765Z,5.68
2022-10-26T14:05:14.973Z,5.30
2022-10-26T14:10:31.327Z,6.05
2022-10-26T14:12:58.819Z,6.32
2022-10-26T14:15:27.589Z,5.93
2022-10-26T14:17:55.414Z,6.00
2022-10-26T14:20:23.986Z,5.30
2022-10-26T14:22:51.234Z,6.15
2022-10-26T14:25:30.953Z,6.57
2022-10-26T14:28:21.961Z,6.35
2022-10-26T14:30:49.087Z,5.93
2022-10-26T14:33:28.736Z,6.45
2022-10-26T14:35:56.025Z,7.03
2022-10-26T14:38:29.397Z,7.45
2022-10-26T14:40:57.665Z,7.35
2022-10-26T14:43:25.752Z,6.93
2022-10-26T14:45:53.886Z,7.10
2022-10-26T14:48:23.230Z,6.47
2022-10-26T14:51:02.500Z,7.10
2022-10-26T14:53:31.476Z,6.75
2022-10-26T14:55:58.919Z,5.63
2022-10-26T14:58:30.885Z,6.57
2022-10-26T15:01:16.898Z,6.80
2022-10-26T15:03:45.693Z,5.90
2022-10-26T15:06:31.758Z,5.75
2022-10-26T15:08:59.993Z,5.32
2022-10-26T15:11:27.698Z,6.00
2022-10-26T15:13:55.350Z,5.72
2022-10-26T15:16:22.498Z,4.95
2022-10-26T15:18:51.580Z,5.65
2022-10-26T15:21:18.698Z,5.88
2022-10-26T15:23:45.955Z,5.22
2022-10-26T15:26:13.106Z,4.22
2022-10-26T15:28:43.941Z,4.32
2022-10-26T15:31:11.178Z,3.83
2022-10-26T15:33:39.190Z,3.45
2022-10-26T15:36:09.118Z,4.03
2022-10-26T15:38:36.470Z,3.60
2022-10-26T15:41:12.444Z,4.68
2022-10-26T15:43:39.653Z,3.58
2022-10-26T15:46:06.823Z,3.20
2022-10-26T15:48:36.034Z,4.03
2022-10-26T15:51:03.315Z,3.28
2022-10-26T15:53:31.025Z,3.05
2022-10-26T15:55:59.613Z,3.15
2022-10-26T15:58:27.258Z,3.47
2022-10-26T16:00:54.392Z,3.40
2022-10-26T16:03:22.824Z,3.33
2022-10-26T16:05:52.508Z,4.40
2022-10-26T16:08:19.706Z,3.10
2022-10-26T16:10:47.358Z,3.63
2022-10-26T16:13:15.400Z,3.55
2022-10-26T16:15:42.910Z,3.55
2022-10-26T16:18:10.048Z,3.60
2022-10-26T16:20:37.365Z,3.53
2022-10-26T16:23:07.634Z,3.50
2022-10-26T16:25:45.300Z,3.77
2022-10-26T16:28:13.510Z,4.07
2022-10-26T16:33:13.381Z,4.50
2022-10-26T16:35:40.533Z,3.97
2022-10-26T16:38:07.673Z,3.65
2022-10-26T16:40:34.848Z,4.25
2022-10-26T16:43:01.974Z,3.45
2022-10-26T16:45:29.141Z,3.00
2022-10-26T16:47:56.860Z,4.07
2022-10-26T16:50:24.204Z,4.18
2022-10-26T16:52:51.317Z,3.78
2022-10-26T16:55:18.695Z,3.75
2022-10-26T16:57:45.864Z,3.50
2022-10-26T17:00:13.102Z,4.15
2022-10-26T17:02:40.660Z,3.47
2022-10-26T17:05:09.479Z,4.07
2022-10-26T17:07:36.603Z,4.75
2022-10-26T17:10:03.995Z,4.53
2022-10-26T17:12:31.376Z,4.78
2022-10-26T17:15:00.568Z,4.72
2022-10-26T17:17:28.014Z,5.22
2022-10-26T17:19:55.304Z,4.68
2022-10-26T17:22:22.731Z,4.88
2022-10-26T17:24:49.923Z,5.10
2022-10-26T17:27:17.406Z,4.85
2022-10-26T17:29:44.549Z,5.00
2022-10-26T17:32:11.843Z,5.13
2022-10-26T17:34:39.027Z,5.30
2022-10-26T17:37:06.170Z,5.53
2022-10-26T17:39:33.342Z,5.20
2022-10-26T17:42:00.467Z,5.55
2022-10-26T17:44:27.586Z,5.07
2022-10-26T17:46:54.754Z,4.43
2022-10-26T17:49:24.913Z,4.47
2022-10-26T17:51:54.053Z,4.10
2022-10-26T17:54:21.743Z,4.93
2022-10-26T17:56:48.890Z,5.38
2022-10-26T17:59:16.091Z,4.80
2022-10-26T18:01:44.076Z,4.60
2022-10-26T18:04:11.541Z,4.28
2022-10-26T18:06:39.401Z,4.97
2022-10-26T18:09:06.620Z,4.00
2022-10-26T18:11:33.742Z,3.97
2022-10-26T18:14:00.941Z,4.25
2022-10-26T18:16:28.994Z,4.13
2022-10-26T18:19:00.309Z,4.05
2022-10-26T18:21:28.582Z,3.85
2022-10-26T18:23:55.799Z,3.78
2022-10-26T18:26:24.158Z,3.92
2022-10-26T18:28:51.335Z,3.38
2022-10-26T18:31:19.787Z,4.00
2022-10-26T18:33:47.041Z,3.30
2022-10-26T18:36:15.276Z,4.00
2022-10-26T18:38:43.417Z,4.03
2022-10-26T18:41:11.602Z,3.78
2022-10-26T18:43:42.438Z,4.15
2022-10-26T18:46:09.673Z,4.82
2022-10-26T18:48:36.836Z,4.13
2022-10-26T18:51:14.102Z,3.92
2022-10-26T18:53:42.095Z,4.32
2022-10-26T18:56:10.755Z,4.40
2022-10-26T18:58:42.444Z,4.43
2022-10-26T19:01:11.229Z,4.57
2022-10-26T19:03:38.910Z,4.38
2022-10-26T19:06:16.659Z,4.63
2022-10-26T19:08:44.496Z,4.60
2022-10-26T19:11:13.164Z,4.18
2022-10-26T19:13:41.027Z,3.75
2022-10-26T19:16:17.019Z,4.20
2022-10-26T19:18:56.210Z,4.20
2022-10-26T19:21:23.916Z,4.30
2022-10-26T19:23:52.245Z,4.90
2022-10-26T19:26:20.729Z,4.57
2022-10-26T19:28:48.357Z,4.68
2022-10-26T19:31:15.733Z,5.00
2022-10-26T19:33:42.993Z,4.90
2022-10-26T19:36:12.094Z,4.93
2022-10-26T19:38:39.359Z,4.45
2022-10-26T19:41:07.719Z,4.32
2022-10-26T19:43:35.679Z,4.13
2022-10-26T19:46:07.653Z,4.35
2022-10-26T19:48:35.023Z,4.53
2022-10-26T19:51:02.158Z,4.60
2022-10-26T19:53:29.452Z,4.88
2022-10-26T19:55:57.380Z,4.70
2022-10-26T19:58:28.618Z,4.78
2022-10-26T20:03:29.048Z,4.18
2022-10-26T20:05:57.215Z,5.00
2022-10-26T20:08:24.544Z,4.80
2022-10-26T20:10:54.328Z,5.22
2022-10-26T20:13:21.861Z,4.85
2022-10-26T20:15:49.891Z,5.40
2022-10-26T20:18:17.399Z,4.88
2022-10-26T20:20:44.567Z,5.40
2022-10-26T20:23:11.892Z,5.00
2022-10-26T20:25:40.072Z,4.63
2022-10-26T20:28:07.513Z,4.30
2022-10-26T20:30:35.555Z,4.57
2022-10-26T20:33:02.681Z,4.60
2022-10-26T20:35:29.922Z,4.68
2022-10-26T20:37:57.191Z,4.65
2022-10-26T20:40:24.778Z,4.82
2022-10-26T20:42:52.722Z,4.38
2022-10-26T20:45:24.486Z,4.43
2022-10-26T20:47:52.135Z,4.75
2022-10-26T20:50:19.798Z,5.32
2022-10-26T20:52:49.250Z,4.88
2022-10-26T20:55:28.100Z,4.80
2022-10-26T20:57:58.026Z,4.60
2022-10-26T21:00:25.337Z,5.10
2022-10-26T21:02:52.744Z,5.68
2022-10-26T21:05:21.015Z,5.60
2022-10-26T21:07:48.242Z,5.63
2022-10-26T21:10:15.545Z,5.30
2022-10-26T21:12:42.719Z,6.00
2022-10-26T21:15:10.108Z,5.85
2022-10-26T21:17:37.310Z,5.50
2022-10-26T21:20:04.497Z,5.60
2022-10-26T21:22:31.594Z,6.00
2022-10-26T21:24:58.784Z,6.10
2022-10-26T21:27:25.913Z,6.18
2022-10-26T21:29:53.077Z,5.88
2022-10-26T21:32:20.264Z,5.70
2022-10-26T21:34:47.378Z,6.93
2022-10-26T21:37:14.499Z,6.43
2022-10-26T21:39:41.684Z,6.70
2022-10-26T21:42:09.213Z,6.47
2022-10-26T21:44:41.317Z,6.57
2022-10-26T21:47:09.442Z,7.07
2022-10-26T21:49:36.636Z,7.30
2022-10-26T21:52:03.902Z,7.07
2022-10-26T21:54:31.108Z,6.68
2022-10-26T21:56:58.220Z,6.30
2022-10-26T21:59:25.454Z,6.68
2022-10-26T22:01:52.762Z,6.95
2022-10-26T22:04:19.963Z,6.53
2022-10-26T22:06:47.079Z,7.25
2022-10-26T22:09:14.276Z,6.65
2022-10-26T22:11:41.385Z,6.65
2022-10-26T22:14:08.495Z,7.05
2022-10-26T22:16:35.951Z,7.63
2022-10-26T22:19:04.556Z,6.75
2022-10-26T22:21:35.042Z,5.88
2022-10-26T22:24:02.622Z,7.05
2022-10-26T22:26:29.737Z,6.53
2022-10-26T22:28:57.692Z,7.10
2022-10-26T22:31:32.898Z,6.65
2022-10-26T22:34:07.395Z,7.13
2022-10-26T22:36:35.755Z,6.10
2022-10-26T22:39:03.002Z,7.53
2022-10-26T22:41:30.266Z,7.28
2022-10-26T22:43:57.451Z,7.22
2022-10-26T22:46:25.544Z,7.43
2022-10-26T22:48:56.520Z,7.25
2022-10-26T22:51:24.627Z,7.97
2022-10-26T22:53:52.977Z,7.80
2022-10-26T22:56:20.374Z,7.43
2022-10-26T22:58:47.679Z,8.45
2022-10-26T23:01:16.248Z,8.10
2022-10-26T23:03:43.720Z,8.50
2022-10-26T23:06:12.575Z,7.82
2022-10-26T23:08:39.705Z,7.43
2022-10-26T23:11:08.202Z,8.32
2022-10-26T23:13:35.695Z,7.28
2022-10-26T23:16:10.069Z,7.43
2022-10-26T23:18:37.727Z,7.93
2022-10-26T23:21:05.253Z,7.68
2022-10-26T23:23:32.766Z,8.70
2022-10-26T23:26:00.832Z,8.40
2022-10-26T23:28:27.984Z,8.52
2022-10-26T23:30:55.280Z,9.73
2022-10-26T23:33:22.518Z,8.05
2022-10-26T23:35:51.168Z,8.30
2022-10-26T23:38:18.696Z,9.88
2022-10-26T23:40:49.927Z,9.85
2022-10-26T23:45:44.058Z,10.90
2022-10-26T23:48:11.329Z,9.90
2022-10-26T23:50:38.496Z,10.50
2022-10-26T23:53:05.597Z,10.57
2022-10-26T23:55:32.776Z,10.40
2022-10-26T23:57:59.957Z,9.45
